sensor_id;sensor_type;location;lat;lon;timestamp;pressure;altitude;pressure_sealevel;temperature;humidity
68320;BME280;55168;51.120;17.024;2023-04-05T00:00:00;100790;;;-0.6;100.0
68320;BME280;55168;51.120;17.024;2023-04-05T00:01:00;100790;;;-0.6;100.0
68320;BME280;55168;51.120;17.024;2023-04-05T00:02:00;100790;;;-0.6;100.0
68320;BME280;55168;51.120;17.024;2023-04-05T00:03:00;100790;;;-0.6;100.0
68320;BME280;55168;51.120;17.024;2023-04-05T00:04:00;100790;;;-0.6;100.0
68320;BME280;55168;51.120;17.024;2023-04-05T00:05:00;100790;;;-0.7;100.0
68320;BME280;55168;51.120;17.024;2023-04-05T00:06:00;100790;;;-0.6;100.0
68320;BME280;55168;51.120;17.024;2023-04-05T00:07:00;100790;;;-0.6;100.0
68320;BME280;55168;51.120;17.024;2023-04-05T00:08:00;100800;;;-0.6;100.0
68320;BME280;55168;51.120;17.024;2023-04-05T00:09:00;100790;;;-0.6;100.0
68320;BME280;55168;51.120;17.024;2023-04-05T00:10:00;100790;;;-0.5;100.0
68320;BME280;55168;51.120;17.024;2023-04-05T00:11:00;100790;;;-0.6;100.0
68320;BME280;55168;51.120;17.024;2023-04-05T00:12:00;100790;;;-0.6;100.0
68320;BME280;55168;51.120;17.024;2023-04-05T00:13:00;100790;;;-0.6;100.0
68320;BME280;55168;51.120;17.024;2023-04-05T00:14:00;100790;;;-0.6;100.0
68320;BME280;55168;51.120;17.024;2023-04-05T00:15:00;100790;;;-0.6;100.0
68320;BME280;55168;51.120;17.024;2023-04-05T00:16:00;100790;;;-0.7;100.0
68320;BME280;55168;51.120;17.024;2023-04-05T00:17:00;100790;;;-0.7;100.0
68320;BME280;55168;51.120;17.024;2023-04-05T00:18:00;100790;;;-0.7;100.0
68320;BME280;55168;51.120;17.024;2023-04-05T00:19:00;100790;;;-0.7;100.0
68320;BME280;55168;51.120;17.024;2023-04-05T00:20:00;100790;;;-0.8;100.0
68320;BME280;55168;51.120;17.024;2023-04-05T00:21:00;100790;;;-0.8;100.0
68320;BME280;55168;51.120;17.024;2023-04-05T00:22:00;100790;;;-0.8;100.0
68320;BME280;55168;51.120;17.024;2023-04-05T00:23:00;100790;;;-0.8;100.0
68320;BME280;55168;51.120;17.024;2023-04-05T00:24:00;100780;;;-0.8;100.0
68320;BME280;55168;51.120;17.024;2023-04-05T00:25:01;100790;;;-0.8;100.0
68320;BME280;55168;51.120;17.024;2023-04-05T00:26:00;100790;;;-0.7;100.0
68320;BME280;55168;51.120;17.024;2023-04-05T00:27:00;100780;;;-0.8;100.0
68320;BME280;55168;51.120;17.024;2023-04-05T00:28:00;100790;;;-0.8;100.0
68320;BME280;55168;51.120;17.024;2023-04-05T00:29:00;100780;;;-0.8;100.0
68320;BME280;55168;51.120;17.024;2023-04-05T00:30:00;100790;;;-0.8;100.0
68320;BME280;55168;51.120;17.024;2023-04-05T00:31:00;100780;;;-0.7;100.0
68320;BME280;55168;51.120;17.024;2023-04-05T00:32:00;100780;;;-0.7;100.0
68320;BME280;55168;51.120;17.024;2023-04-05T00:33:00;100780;;;-0.8;100.0
68320;BME280;55168;51.120;17.024;2023-04-05T00:34:00;100780;;;-0.7;100.0
68320;BME280;55168;51.120;17.024;2023-04-05T00:35:00;100780;;;-0.7;100.0
68320;BME280;55168;51.120;17.024;2023-04-05T00:36:17;100780;;;-0.7;100.0
68320;BME280;55168;51.120;17.024;2023-04-05T00:37:00;100780;;;-0.8;100.0
68320;BME280;55168;51.120;17.024;2023-04-05T00:38:00;100780;;;-0.8;100.0
68320;BME280;55168;51.120;17.024;2023-04-05T00:39:00;100780;;;-0.9;100.0
68320;BME280;55168;51.120;17.024;2023-04-05T00:40:00;100780;;;-0.9;100.0
68320;BME280;55168;51.120;17.024;2023-04-05T00:41:00;100780;;;-0.9;100.0
68320;BME280;55168;51.120;17.024;2023-04-05T00:42:01;100780;;;-1.0;100.0
68320;BME280;55168;51.120;17.024;2023-04-05T00:43:00;100780;;;-1.0;100.0
68320;BME280;55168;51.120;17.024;2023-04-05T00:44:00;100780;;;-1.0;100.0
68320;BME280;55168;51.120;17.024;2023-04-05T00:45:00;100780;;;-1.0;100.0
68320;BME280;55168;51.120;17.024;2023-04-05T00:46:00;100780;;;-1.1;100.0
68320;BME280;55168;51.120;17.024;2023-04-05T00:47:01;100780;;;-1.1;100.0
68320;BME280;55168;51.120;17.024;2023-04-05T00:48:00;100780;;;-1.1;100.0
68320;BME280;55168;51.120;17.024;2023-04-05T00:49:00;100780;;;-1.2;100.0
68320;BME280;55168;51.120;17.024;2023-04-05T00:50:00;100780;;;-1.2;100.0
68320;BME280;55168;51.120;17.024;2023-04-05T00:51:00;100780;;;-1.2;100.0
68320;BME280;55168;51.120;17.024;2023-04-05T00:52:00;100780;;;-1.2;100.0
68320;BME280;55168;51.120;17.024;2023-04-05T00:53:00;100780;;;-1.2;100.0
68320;BME280;55168;51.120;17.024;2023-04-05T00:54:00;100780;;;-1.2;100.0
68320;BME280;55168;51.120;17.024;2023-04-05T00:55:00;100780;;;-1.2;100.0
68320;BME280;55168;51.120;17.024;2023-04-05T00:56:00;100780;;;-1.2;100.0
68320;BME280;55168;51.120;17.024;2023-04-05T00:57:00;100780;;;-1.3;100.0
68320;BME280;55168;51.120;17.024;2023-04-05T00:58:00;100780;;;-1.3;100.0
68320;BME280;55168;51.120;17.024;2023-04-05T00:59:00;100780;;;-1.3;100.0
68320;BME280;55168;51.120;17.024;2023-04-05T01:00:00;100780;;;-1.3;100.0
68320;BME280;55168;51.120;17.024;2023-04-05T01:01:06;100780;;;-1.4;100.0
68320;BME280;55168;51.120;17.024;2023-04-05T01:02:01;100780;;;-1.4;100.0
68320;BME280;55168;51.120;17.024;2023-04-05T01:03:00;100770;;;-1.4;100.0
68320;BME280;55168;51.120;17.024;2023-04-05T01:04:00;100780;;;-1.4;100.0
68320;BME280;55168;51.120;17.024;2023-04-05T01:05:01;100770;;;-1.4;100.0
68320;BME280;55168;51.120;17.024;2023-04-05T01:06:07;100770;;;-1.4;100.0
68320;BME280;55168;51.120;17.024;2023-04-05T01:07:08;100770;;;-1.4;100.0
68320;BME280;55168;51.120;17.024;2023-04-05T01:08:03;100770;;;-1.4;100.0
68320;BME280;55168;51.120;17.024;2023-04-05T01:10:00;100770;;;-1.4;100.0
68320;BME280;55168;51.120;17.024;2023-04-05T01:11:01;100760;;;-1.4;100.0
68320;BME280;55168;51.120;17.024;2023-04-05T01:12:02;100760;;;-1.4;100.0
68320;BME280;55168;51.120;17.024;2023-04-05T01:13:00;100770;;;-1.4;100.0
68320;BME280;55168;51.120;17.024;2023-04-05T01:14:00;100760;;;-1.4;100.0
68320;BME280;55168;51.120;17.024;2023-04-05T01:15:00;100760;;;-1.4;100.0
68320;BME280;55168;51.120;17.024;2023-04-05T01:16:00;100760;;;-1.4;100.0
68320;BME280;55168;51.120;17.024;2023-04-05T01:17:00;100760;;;-1.4;100.0
68320;BME280;55168;51.120;17.024;2023-04-05T01:18:00;100760;;;-1.5;100.0
68320;BME280;55168;51.120;17.024;2023-04-05T01:19:00;100760;;;-1.5;100.0
68320;BME280;55168;51.120;17.024;2023-04-05T01:20:00;100750;;;-1.6;100.0
68320;BME280;55168;51.120;17.024;2023-04-05T01:22:22;100760;;;-1.6;100.0
68320;BME280;55168;51.120;17.024;2023-04-05T01:25:07;100760;;;-1.6;100.0
68320;BME280;55168;51.120;17.024;2023-04-05T01:27:01;100760;;;-1.5;100.0
68320;BME280;55168;51.120;17.024;2023-04-05T01:32:02;100760;;;-1.3;100.0
68320;BME280;55168;51.120;17.024;2023-04-05T01:34:04;100750;;;-1.3;100.0
68320;BME280;55168;51.120;17.024;2023-04-05T01:35:16;100750;;;-1.3;100.0
68320;BME280;55168;51.120;17.024;2023-04-05T01:36:02;100750;;;-1.3;100.0
68320;BME280;55168;51.120;17.024;2023-04-05T01:37:01;100750;;;-1.2;100.0
68320;BME280;55168;51.120;17.024;2023-04-05T01:38:01;100750;;;-1.3;100.0
68320;BME280;55168;51.120;17.024;2023-04-05T01:39:00;100750;;;-1.3;100.0
68320;BME280;55168;51.120;17.024;2023-04-05T01:40:00;100750;;;-1.3;100.0
68320;BME280;55168;51.120;17.024;2023-04-05T01:41:00;100750;;;-1.3;100.0
68320;BME280;55168;51.120;17.024;2023-04-05T01:42:00;100750;;;-1.3;100.0
68320;BME280;55168;51.120;17.024;2023-04-05T01:43:00;100750;;;-1.3;100.0
68320;BME280;55168;51.120;17.024;2023-04-05T01:44:00;100750;;;-1.3;100.0
68320;BME280;55168;51.120;17.024;2023-04-05T01:45:00;100750;;;-1.3;100.0
68320;BME280;55168;51.120;17.024;2023-04-05T01:46:00;100750;;;-1.3;100.0
68320;BME280;55168;51.120;17.024;2023-04-05T01:47:00;100750;;;-1.2;100.0
68320;BME280;55168;51.120;17.024;2023-04-05T01:48:00;100750;;;-1.2;100.0
68320;BME280;55168;51.120;17.024;2023-04-05T01:49:00;100760;;;-1.2;100.0
68320;BME280;55168;51.120;17.024;2023-04-05T01:50:00;100760;;;-1.2;100.0
68320;BME280;55168;51.120;17.024;2023-04-05T01:51:00;100750;;;-1.2;100.0
68320;BME280;55168;51.120;17.024;2023-04-05T01:52:00;100750;;;-1.2;100.0
68320;BME280;55168;51.120;17.024;2023-04-05T01:53:00;100750;;;-1.2;100.0
68320;BME280;55168;51.120;17.024;2023-04-05T01:54:00;100750;;;-1.2;100.0
68320;BME280;55168;51.120;17.024;2023-04-05T01:55:00;100750;;;-1.3;100.0
68320;BME280;55168;51.120;17.024;2023-04-05T01:56:00;100750;;;-1.3;100.0
68320;BME280;55168;51.120;17.024;2023-04-05T01:57:00;100750;;;-1.3;100.0
68320;BME280;55168;51.120;17.024;2023-04-05T01:58:00;100750;;;-1.3;100.0
68320;BME280;55168;51.120;17.024;2023-04-05T01:59:00;100750;;;-1.3;100.0
68320;BME280;55168;51.120;17.024;2023-04-05T02:00:00;100750;;;-1.3;100.0
68320;BME280;55168;51.120;17.024;2023-04-05T02:01:00;100740;;;-1.3;100.0
68320;BME280;55168;51.120;17.024;2023-04-05T02:02:00;100750;;;-1.3;100.0
68320;BME280;55168;51.120;17.024;2023-04-05T02:03:00;100740;;;-1.3;100.0
68320;BME280;55168;51.120;17.024;2023-04-05T02:04:00;100740;;;-1.3;100.0
68320;BME280;55168;51.120;17.024;2023-04-05T02:05:00;100740;;;-1.3;100.0
68320;BME280;55168;51.120;17.024;2023-04-05T02:06:00;100740;;;-1.3;100.0
68320;BME280;55168;51.120;17.024;2023-04-05T02:07:00;100740;;;-1.3;100.0
68320;BME280;55168;51.120;17.024;2023-04-05T02:08:00;100740;;;-1.3;100.0
68320;BME280;55168;51.120;17.024;2023-04-05T02:09:00;100740;;;-1.3;100.0
68320;BME280;55168;51.120;17.024;2023-04-05T02:10:00;100740;;;-1.4;100.0
68320;BME280;55168;51.120;17.024;2023-04-05T02:11:00;100740;;;-1.3;100.0
68320;BME280;55168;51.120;17.024;2023-04-05T02:12:00;100740;;;-1.3;100.0
68320;BME280;55168;51.120;17.024;2023-04-05T02:13:00;100740;;;-1.4;100.0
68320;BME280;55168;51.120;17.024;2023-04-05T02:14:00;100740;;;-1.4;100.0
68320;BME280;55168;51.120;17.024;2023-04-05T02:15:00;100740;;;-1.4;100.0
68320;BME280;55168;51.120;17.024;2023-04-05T02:16:00;100730;;;-1.5;100.0
68320;BME280;55168;51.120;17.024;2023-04-05T02:17:00;100740;;;-1.5;100.0
68320;BME280;55168;51.120;17.024;2023-04-05T02:18:00;100730;;;-1.5;100.0
68320;BME280;55168;51.120;17.024;2023-04-05T02:19:00;100730;;;-1.6;100.0
68320;BME280;55168;51.120;17.024;2023-04-05T02:20:00;100740;;;-1.6;100.0
68320;BME280;55168;51.120;17.024;2023-04-05T02:21:00;100740;;;-1.6;100.0
68320;BME280;55168;51.120;17.024;2023-04-05T02:22:00;100740;;;-1.6;100.0
68320;BME280;55168;51.120;17.024;2023-04-05T02:23:00;100740;;;-1.6;100.0
68320;BME280;55168;51.120;17.024;2023-04-05T02:24:00;100730;;;-1.7;100.0
68320;BME280;55168;51.120;17.024;2023-04-05T02:25:00;100730;;;-1.7;100.0
68320;BME280;55168;51.120;17.024;2023-04-05T02:26:00;100730;;;-1.7;100.0
68320;BME280;55168;51.120;17.024;2023-04-05T02:27:00;100730;;;-1.7;100.0
68320;BME280;55168;51.120;17.024;2023-04-05T02:28:00;100730;;;-1.6;100.0
68320;BME280;55168;51.120;17.024;2023-04-05T02:29:00;100720;;;-1.6;100.0
68320;BME280;55168;51.120;17.024;2023-04-05T02:30:00;100720;;;-1.6;100.0
68320;BME280;55168;51.120;17.024;2023-04-05T02:31:00;100720;;;-1.6;100.0
68320;BME280;55168;51.120;17.024;2023-04-05T02:32:00;100720;;;-1.6;100.0
68320;BME280;55168;51.120;17.024;2023-04-05T02:33:00;100710;;;-1.6;100.0
68320;BME280;55168;51.120;17.024;2023-04-05T02:34:00;100710;;;-1.5;100.0
68320;BME280;55168;51.120;17.024;2023-04-05T02:35:00;100710;;;-1.5;100.0
68320;BME280;55168;51.120;17.024;2023-04-05T02:36:02;100710;;;-1.6;100.0
68320;BME280;55168;51.120;17.024;2023-04-05T02:37:00;100710;;;-1.6;100.0
68320;BME280;55168;51.120;17.024;2023-04-05T02:38:00;100710;;;-1.6;100.0
68320;BME280;55168;51.120;17.024;2023-04-05T02:39:00;100720;;;-1.6;100.0
68320;BME280;55168;51.120;17.024;2023-04-05T02:40:00;100710;;;-1.6;100.0
68320;BME280;55168;51.120;17.024;2023-04-05T02:41:00;100710;;;-1.7;100.0
68320;BME280;55168;51.120;17.024;2023-04-05T02:42:00;100710;;;-1.6;100.0
68320;BME280;55168;51.120;17.024;2023-04-05T02:43:00;100710;;;-1.6;100.0
68320;BME280;55168;51.120;17.024;2023-04-05T02:44:00;100710;;;-1.6;100.0
68320;BME280;55168;51.120;17.024;2023-04-05T02:45:00;100710;;;-1.6;100.0
68320;BME280;55168;51.120;17.024;2023-04-05T02:46:00;100700;;;-1.6;100.0
68320;BME280;55168;51.120;17.024;2023-04-05T02:47:00;100710;;;-1.7;100.0
68320;BME280;55168;51.120;17.024;2023-04-05T02:48:00;100710;;;-1.7;100.0
68320;BME280;55168;51.120;17.024;2023-04-05T02:49:00;100710;;;-1.7;100.0
68320;BME280;55168;51.120;17.024;2023-04-05T02:50:00;100710;;;-1.7;100.0
68320;BME280;55168;51.120;17.024;2023-04-05T02:51:00;100710;;;-1.7;100.0
68320;BME280;55168;51.120;17.024;2023-04-05T02:52:00;100710;;;-1.7;100.0
68320;BME280;55168;51.120;17.024;2023-04-05T02:53:00;100710;;;-1.7;100.0
68320;BME280;55168;51.120;17.024;2023-04-05T02:54:01;100710;;;-1.7;100.0
68320;BME280;55168;51.120;17.024;2023-04-05T02:55:00;100710;;;-1.7;100.0
68320;BME280;55168;51.120;17.024;2023-04-05T02:56:00;100710;;;-1.7;100.0
68320;BME280;55168;51.120;17.024;2023-04-05T02:57:00;100710;;;-1.7;100.0
68320;BME280;55168;51.120;17.024;2023-04-05T02:58:00;100710;;;-1.7;100.0
68320;BME280;55168;51.120;17.024;2023-04-05T02:59:00;100710;;;-1.7;100.0
68320;BME280;55168;51.120;17.024;2023-04-05T03:00:00;100710;;;-1.7;100.0
68320;BME280;55168;51.120;17.024;2023-04-05T03:01:00;100700;;;-1.8;100.0
68320;BME280;55168;51.120;17.024;2023-04-05T03:02:00;100710;;;-1.8;100.0
68320;BME280;55168;51.120;17.024;2023-04-05T03:03:00;100710;;;-1.8;100.0
68320;BME280;55168;51.120;17.024;2023-04-05T03:04:00;100710;;;-1.8;100.0
68320;BME280;55168;51.120;17.024;2023-04-05T03:05:00;100710;;;-1.8;100.0
68320;BME280;55168;51.120;17.024;2023-04-05T03:06:02;100710;;;-1.8;100.0
68320;BME280;55168;51.120;17.024;2023-04-05T03:07:00;100710;;;-1.8;100.0
68320;BME280;55168;51.120;17.024;2023-04-05T03:08:00;100710;;;-1.8;100.0
68320;BME280;55168;51.120;17.024;2023-04-05T03:09:00;100710;;;-1.8;100.0
68320;BME280;55168;51.120;17.024;2023-04-05T03:10:00;100700;;;-1.8;100.0
68320;BME280;55168;51.120;17.024;2023-04-05T03:11:00;100700;;;-1.8;100.0
68320;BME280;55168;51.120;17.024;2023-04-05T03:12:00;100710;;;-1.8;100.0
68320;BME280;55168;51.120;17.024;2023-04-05T03:13:00;100700;;;-1.8;100.0
68320;BME280;55168;51.120;17.024;2023-04-05T03:14:00;100700;;;-1.8;100.0
68320;BME280;55168;51.120;17.024;2023-04-05T03:15:00;100700;;;-1.9;100.0
68320;BME280;55168;51.120;17.024;2023-04-05T03:16:00;100700;;;-1.9;100.0
68320;BME280;55168;51.120;17.024;2023-04-05T03:17:00;100700;;;-1.8;100.0
68320;BME280;55168;51.120;17.024;2023-04-05T03:18:00;100700;;;-1.8;100.0
68320;BME280;55168;51.120;17.024;2023-04-05T03:19:00;100700;;;-1.8;100.0
68320;BME280;55168;51.120;17.024;2023-04-05T03:20:00;100700;;;-1.8;100.0
68320;BME280;55168;51.120;17.024;2023-04-05T03:21:00;100700;;;-1.8;100.0
68320;BME280;55168;51.120;17.024;2023-04-05T03:22:00;100710;;;-1.8;100.0
68320;BME280;55168;51.120;17.024;2023-04-05T03:23:00;100700;;;-1.8;100.0
68320;BME280;55168;51.120;17.024;2023-04-05T03:24:00;100700;;;-1.8;100.0
68320;BME280;55168;51.120;17.024;2023-04-05T03:25:00;100710;;;-1.8;100.0
68320;BME280;55168;51.120;17.024;2023-04-05T03:26:00;100700;;;-1.7;100.0
68320;BME280;55168;51.120;17.024;2023-04-05T03:27:00;100700;;;-1.8;100.0
68320;BME280;55168;51.120;17.024;2023-04-05T03:28:00;100700;;;-1.8;100.0
68320;BME280;55168;51.120;17.024;2023-04-05T03:29:00;100700;;;-1.8;100.0
68320;BME280;55168;51.120;17.024;2023-04-05T03:30:00;100700;;;-1.8;100.0
68320;BME280;55168;51.120;17.024;2023-04-05T03:31:00;100700;;;-1.8;100.0
68320;BME280;55168;51.120;17.024;2023-04-05T03:32:00;100700;;;-1.8;100.0
68320;BME280;55168;51.120;17.024;2023-04-05T03:33:00;100700;;;-1.7;100.0
68320;BME280;55168;51.120;17.024;2023-04-05T03:34:00;100700;;;-1.7;100.0
68320;BME280;55168;51.120;17.024;2023-04-05T03:35:00;100700;;;-1.7;100.0
68320;BME280;55168;51.120;17.024;2023-04-05T03:36:00;100700;;;-1.7;100.0
68320;BME280;55168;51.120;17.024;2023-04-05T03:37:00;100690;;;-1.7;100.0
68320;BME280;55168;51.120;17.024;2023-04-05T03:38:00;100690;;;-1.7;100.0
68320;BME280;55168;51.120;17.024;2023-04-05T03:39:00;100690;;;-1.7;100.0
68320;BME280;55168;51.120;17.024;2023-04-05T03:40:00;100690;;;-1.7;100.0
68320;BME280;55168;51.120;17.024;2023-04-05T03:41:00;100690;;;-1.7;100.0
68320;BME280;55168;51.120;17.024;2023-04-05T03:42:00;100700;;;-1.7;100.0
68320;BME280;55168;51.120;17.024;2023-04-05T03:43:00;100690;;;-1.7;100.0
68320;BME280;55168;51.120;17.024;2023-04-05T03:44:00;100690;;;-1.7;100.0
68320;BME280;55168;51.120;17.024;2023-04-05T03:45:00;100690;;;-1.6;100.0
68320;BME280;55168;51.120;17.024;2023-04-05T03:46:00;100700;;;-1.6;100.0
68320;BME280;55168;51.120;17.024;2023-04-05T03:47:00;100690;;;-1.5;100.0
68320;BME280;55168;51.120;17.024;2023-04-05T03:48:00;100690;;;-1.5;100.0
68320;BME280;55168;51.120;17.024;2023-04-05T03:49:00;100690;;;-1.5;100.0
68320;BME280;55168;51.120;17.024;2023-04-05T03:50:00;100700;;;-1.4;100.0
68320;BME280;55168;51.120;17.024;2023-04-05T03:51:00;100690;;;-1.4;100.0
68320;BME280;55168;51.120;17.024;2023-04-05T03:52:00;100690;;;-1.4;100.0
68320;BME280;55168;51.120;17.024;2023-04-05T03:53:00;100690;;;-1.4;100.0
68320;BME280;55168;51.120;17.024;2023-04-05T03:54:00;100690;;;-1.4;100.0
68320;BME280;55168;51.120;17.024;2023-04-05T03:55:00;100690;;;-1.4;100.0
68320;BME280;55168;51.120;17.024;2023-04-05T03:56:00;100700;;;-1.4;100.0
68320;BME280;55168;51.120;17.024;2023-04-05T03:57:00;100690;;;-1.4;100.0
68320;BME280;55168;51.120;17.024;2023-04-05T03:58:00;100690;;;-1.4;100.0
68320;BME280;55168;51.120;17.024;2023-04-05T03:59:00;100700;;;-1.4;100.0
68320;BME280;55168;51.120;17.024;2023-04-05T04:00:00;100700;;;-1.4;100.0
68320;BME280;55168;51.120;17.024;2023-04-05T04:01:00;100700;;;-1.5;100.0
68320;BME280;55168;51.120;17.024;2023-04-05T04:02:00;100700;;;-1.4;100.0
68320;BME280;55168;51.120;17.024;2023-04-05T04:03:00;100700;;;-1.4;100.0
68320;BME280;55168;51.120;17.024;2023-04-05T04:04:00;100700;;;-1.5;100.0
68320;BME280;55168;51.120;17.024;2023-04-05T04:05:00;100700;;;-1.5;100.0
68320;BME280;55168;51.120;17.024;2023-04-05T04:06:00;100700;;;-1.4;100.0
68320;BME280;55168;51.120;17.024;2023-04-05T04:07:00;100700;;;-1.5;100.0
68320;BME280;55168;51.120;17.024;2023-04-05T04:08:00;100710;;;-1.5;100.0
68320;BME280;55168;51.120;17.024;2023-04-05T04:09:00;100710;;;-1.4;100.0
68320;BME280;55168;51.120;17.024;2023-04-05T04:10:00;100710;;;-1.5;100.0
68320;BME280;55168;51.120;17.024;2023-04-05T04:11:00;100710;;;-1.5;100.0
68320;BME280;55168;51.120;17.024;2023-04-05T04:12:00;100710;;;-1.5;100.0
68320;BME280;55168;51.120;17.024;2023-04-05T04:13:00;100710;;;-1.5;100.0
68320;BME280;55168;51.120;17.024;2023-04-05T04:14:00;100710;;;-1.5;100.0
68320;BME280;55168;51.120;17.024;2023-04-05T04:15:00;100710;;;-1.5;100.0
68320;BME280;55168;51.120;17.024;2023-04-05T04:16:00;100710;;;-1.6;100.0
68320;BME280;55168;51.120;17.024;2023-04-05T04:17:00;100710;;;-1.6;100.0
68320;BME280;55168;51.120;17.024;2023-04-05T04:18:00;100710;;;-1.6;100.0
68320;BME280;55168;51.120;17.024;2023-04-05T04:19:00;100710;;;-1.6;100.0
68320;BME280;55168;51.120;17.024;2023-04-05T04:20:00;100710;;;-1.7;100.0
68320;BME280;55168;51.120;17.024;2023-04-05T04:21:01;100710;;;-1.7;100.0
68320;BME280;55168;51.120;17.024;2023-04-05T04:22:00;100710;;;-1.7;100.0
68320;BME280;55168;51.120;17.024;2023-04-05T04:23:00;100720;;;-1.6;100.0
68320;BME280;55168;51.120;17.024;2023-04-05T04:24:00;100710;;;-1.7;100.0
68320;BME280;55168;51.120;17.024;2023-04-05T04:25:00;100720;;;-1.6;100.0
68320;BME280;55168;51.120;17.024;2023-04-05T04:26:00;100710;;;-1.7;100.0
68320;BME280;55168;51.120;17.024;2023-04-05T04:27:00;100710;;;-1.7;100.0
68320;BME280;55168;51.120;17.024;2023-04-05T04:28:00;100720;;;-1.7;100.0
68320;BME280;55168;51.120;17.024;2023-04-05T04:29:00;100710;;;-1.6;100.0
68320;BME280;55168;51.120;17.024;2023-04-05T04:30:00;100710;;;-1.6;100.0
68320;BME280;55168;51.120;17.024;2023-04-05T04:31:00;100710;;;-1.6;100.0
68320;BME280;55168;51.120;17.024;2023-04-05T04:32:00;100720;;;-1.6;100.0
68320;BME280;55168;51.120;17.024;2023-04-05T04:33:00;100720;;;-1.6;100.0
68320;BME280;55168;51.120;17.024;2023-04-05T04:34:00;100720;;;-1.6;100.0
68320;BME280;55168;51.120;17.024;2023-04-05T04:35:00;100720;;;-1.6;100.0
68320;BME280;55168;51.120;17.024;2023-04-05T04:36:04;100720;;;-1.6;100.0
68320;BME280;55168;51.120;17.024;2023-04-05T04:37:00;100720;;;-1.6;100.0
68320;BME280;55168;51.120;17.024;2023-04-05T04:38:00;100720;;;-1.7;100.0
68320;BME280;55168;51.120;17.024;2023-04-05T04:39:00;100720;;;-1.7;100.0
68320;BME280;55168;51.120;17.024;2023-04-05T04:40:00;100730;;;-1.6;100.0
68320;BME280;55168;51.120;17.024;2023-04-05T04:41:04;100730;;;-1.7;100.0
68320;BME280;55168;51.120;17.024;2023-04-05T04:42:00;100720;;;-1.7;100.0
68320;BME280;55168;51.120;17.024;2023-04-05T04:43:00;100730;;;-1.6;100.0
68320;BME280;55168;51.120;17.024;2023-04-05T04:44:00;100730;;;-1.7;100.0
68320;BME280;55168;51.120;17.024;2023-04-05T04:45:00;100730;;;-1.6;100.0
68320;BME280;55168;51.120;17.024;2023-04-05T04:46:00;100730;;;-1.6;100.0
68320;BME280;55168;51.120;17.024;2023-04-05T04:47:00;100730;;;-1.6;100.0
68320;BME280;55168;51.120;17.024;2023-04-05T04:48:00;100730;;;-1.6;100.0
68320;BME280;55168;51.120;17.024;2023-04-05T04:49:00;100720;;;-1.5;100.0
68320;BME280;55168;51.120;17.024;2023-04-05T04:50:00;100730;;;-1.4;100.0
68320;BME280;55168;51.120;17.024;2023-04-05T04:51:01;100730;;;-1.3;100.0
68320;BME280;55168;51.120;17.024;2023-04-05T04:52:00;100730;;;-1.1;100.0
68320;BME280;55168;51.120;17.024;2023-04-05T04:53:00;100730;;;-1.0;100.0
68320;BME280;55168;51.120;17.024;2023-04-05T04:54:00;100730;;;-0.9;100.0
68320;BME280;55168;51.120;17.024;2023-04-05T04:55:00;100730;;;-0.9;100.0
68320;BME280;55168;51.120;17.024;2023-04-05T04:56:00;100730;;;-0.8;100.0
68320;BME280;55168;51.120;17.024;2023-04-05T04:57:00;100730;;;-0.8;100.0
68320;BME280;55168;51.120;17.024;2023-04-05T04:58:00;100730;;;-0.8;100.0
68320;BME280;55168;51.120;17.024;2023-04-05T04:59:00;100720;;;-0.7;100.0
68320;BME280;55168;51.120;17.024;2023-04-05T05:00:00;100720;;;-0.7;100.0
68320;BME280;55168;51.120;17.024;2023-04-05T05:01:00;100730;;;-0.6;100.0
68320;BME280;55168;51.120;17.024;2023-04-05T05:02:00;100720;;;-0.5;100.0
68320;BME280;55168;51.120;17.024;2023-04-05T05:03:00;100720;;;-0.3;100.0
68320;BME280;55168;51.120;17.024;2023-04-05T05:04:01;100730;;;-0.1;100.0
68320;BME280;55168;51.120;17.024;2023-04-05T05:05:00;100730;;;0.1;100.0
68320;BME280;55168;51.120;17.024;2023-04-05T05:06:00;100720;;;0.2;100.0
68320;BME280;55168;51.120;17.024;2023-04-05T05:07:00;100730;;;0.3;100.0
68320;BME280;55168;51.120;17.024;2023-04-05T05:08:00;100720;;;0.4;100.0
68320;BME280;55168;51.120;17.024;2023-04-05T05:09:00;100720;;;0.5;100.0
68320;BME280;55168;51.120;17.024;2023-04-05T05:10:00;100730;;;0.5;100.0
68320;BME280;55168;51.120;17.024;2023-04-05T05:11:00;100720;;;0.4;100.0
68320;BME280;55168;51.120;17.024;2023-04-05T05:12:00;100720;;;0.4;100.0
68320;BME280;55168;51.120;17.024;2023-04-05T05:13:00;100720;;;0.3;100.0
68320;BME280;55168;51.120;17.024;2023-04-05T05:14:00;100730;;;0.3;100.0
68320;BME280;55168;51.120;17.024;2023-04-05T05:15:00;100730;;;0.2;100.0
68320;BME280;55168;51.120;17.024;2023-04-05T05:16:00;100720;;;0.2;100.0
68320;BME280;55168;51.120;17.024;2023-04-05T05:17:00;100730;;;0.2;100.0
68320;BME280;55168;51.120;17.024;2023-04-05T05:18:00;100720;;;0.1;100.0
68320;BME280;55168;51.120;17.024;2023-04-05T05:19:00;100730;;;0.0;100.0
68320;BME280;55168;51.120;17.024;2023-04-05T05:20:00;100730;;;0.0;100.0
68320;BME280;55168;51.120;17.024;2023-04-05T05:21:00;100730;;;0.0;100.0
68320;BME280;55168;51.120;17.024;2023-04-05T05:22:00;100730;;;0.0;100.0
68320;BME280;55168;51.120;17.024;2023-04-05T05:23:00;100740;;;-0.0;100.0
68320;BME280;55168;51.120;17.024;2023-04-05T05:24:00;100740;;;-0.0;100.0
68320;BME280;55168;51.120;17.024;2023-04-05T05:25:00;100740;;;-0.0;100.0
68320;BME280;55168;51.120;17.024;2023-04-05T05:26:00;100740;;;-0.1;100.0
68320;BME280;55168;51.120;17.024;2023-04-05T05:27:00;100740;;;-0.1;100.0
68320;BME280;55168;51.120;17.024;2023-04-05T05:28:00;100740;;;-0.0;100.0
68320;BME280;55168;51.120;17.024;2023-04-05T05:29:00;100740;;;-0.0;100.0
68320;BME280;55168;51.120;17.024;2023-04-05T05:30:00;100740;;;-0.1;100.0
68320;BME280;55168;51.120;17.024;2023-04-05T05:31:00;100740;;;-0.1;100.0
68320;BME280;55168;51.120;17.024;2023-04-05T05:32:00;100740;;;-0.1;100.0
68320;BME280;55168;51.120;17.024;2023-04-05T05:33:00;100740;;;-0.1;100.0
68320;BME280;55168;51.120;17.024;2023-04-05T05:34:00;100740;;;-0.1;100.0
68320;BME280;55168;51.120;17.024;2023-04-05T05:35:00;100740;;;0.1;100.0
68320;BME280;55168;51.120;17.024;2023-04-05T05:36:00;100740;;;0.4;100.0